Time;durP1;ratioP1;P1;durP2;ratioP2;P2;SDS_P1;SDS_P2;PMS_P1;PMS_P2;Temp;Humidity;BMP_temperature;BMP_pressure;BME280_temperature;BME280_humidity;BME280_pressure;Samples;Min_cycle;Max_cycle;Signal;HPM_P1;HPM_P2
2024/01/31 00:01:30;;;;;;;12.38;11.85;;;5.00;99.90;;;;;;4834335;29;20467;-80
2024/01/31 00:03:56;;;;;;;12.43;11.75;;;5.00;99.90;;;;;;4832592;29;20117;-79
2024/01/31 00:06:21;;;;;;;11.05;10.50;;;4.90;99.90;;;;;;4848502;29;20057;-79
2024/01/31 00:08:47;;;;;;;12.00;11.13;;;4.90;99.90;;;;;;4833352;29;20479;-80
2024/01/31 00:11:13;;;;;;;11.52;10.90;;;4.90;99.90;;;;;;4834178;29;20126;-81
2024/01/31 00:13:39;;;;;;;12.40;11.30;;;4.90;99.90;;;;;;4834314;29;20050;-80
2024/01/31 00:16:05;;;;;;;12.20;11.70;;;4.90;99.90;;;;;;4833314;29;20054;-82
2024/01/31 00:18:31;;;;;;;12.90;12.02;;;4.90;99.90;;;;;;4833172;29;20042;-82
2024/01/31 00:20:57;;;;;;;12.30;11.55;;;4.90;99.90;;;;;;4833959;29;20046;-80
2024/01/31 00:23:23;;;;;;;13.00;12.35;;;4.90;99.90;;;;;;4834898;29;20053;-82
2024/01/31 00:25:49;;;;;;;14.23;13.60;;;5.10;99.90;;;;;;4848980;29;20050;-81
2024/01/31 00:28:15;;;;;;;13.55;12.95;;;4.90;99.90;;;;;;4834229;29;20046;-79
2024/01/31 00:30:41;;;;;;;13.30;12.80;;;4.90;99.90;;;;;;4849643;29;20132;-84
2024/01/31 00:33:07;;;;;;;13.52;12.85;;;4.90;99.90;;;;;;4833605;29;20064;-83
2024/01/31 00:35:32;;;;;;;14.05;13.38;;;4.90;99.90;;;;;;4834194;29;20071;-83
2024/01/31 00:37:58;;;;;;;14.05;13.35;;;4.90;99.90;;;;;;4848582;29;20053;-82
2024/01/31 00:40:24;;;;;;;14.15;13.55;;;4.90;99.90;;;;;;4834675;29;20064;-82
2024/01/31 00:42:49;;;;;;;14.02;13.35;;;4.90;99.90;;;;;;4833867;29;20054;-82
2024/01/31 00:45:15;;;;;;;13.38;12.73;;;4.90;99.90;;;;;;4834207;29;20054;-83
2024/01/31 00:47:41;;;;;;;13.75;13.15;;;4.90;99.90;;;;;;4834043;29;20046;-84
2024/01/31 00:50:07;;;;;;;13.80;13.30;;;4.90;99.90;;;;;;4833663;29;20098;-83
2024/01/31 00:52:33;;;;;;;12.52;11.93;;;4.80;99.90;;;;;;4834249;29;20109;-84
2024/01/31 00:54:58;;;;;;;12.32;11.45;;;4.90;99.90;;;;;;4833372;29;20080;-83
2024/01/31 00:57:24;;;;;;;13.32;12.73;;;4.50;99.90;;;;;;4834449;29;20070;-84
2024/01/31 00:59:50;;;;;;;11.90;11.25;;;4.90;99.90;;;;;;4833450;29;20136;-83
2024/01/31 01:02:16;;;;;;;12.95;12.35;;;4.80;99.90;;;;;;4834121;29;20050;-81
2024/01/31 01:04:42;;;;;;;12.55;11.50;;;4.90;99.90;;;;;;4833510;29;20056;-82
2024/01/31 01:07:08;;;;;;;11.80;11.23;;;5.00;99.90;;;;;;4833064;29;20118;-79
2024/01/31 01:09:36;;;;;;;12.95;12.27;;;4.90;99.90;;;;;;4848903;29;20057;-82
2024/01/31 01:12:03;;;;;;;13.30;12.48;;;4.90;99.90;;;;;;4833277;29;20050;-80
2024/01/31 01:14:28;;;;;;;12.65;12.05;;;4.90;99.90;;;;;;4849439;29;20133;-80
2024/01/31 01:16:54;;;;;;;12.57;11.98;;;4.90;99.90;;;;;;4832819;29;20081;-80
2024/01/31 01:19:20;;;;;;;12.40;11.70;;;4.80;99.90;;;;;;4833872;29;20049;-83
2024/01/31 01:21:46;;;;;;;12.82;11.95;;;4.80;99.90;;;;;;4848499;29;20089;-79
2024/01/31 01:24:11;;;;;;;11.27;10.63;;;4.80;99.90;;;;;;4833215;29;20085;-79
2024/01/31 01:26:40;;;;;;;11.07;10.52;;;4.80;99.90;;;;;;4833950;29;20048;-79
2024/01/31 01:29:07;;;;;;;11.43;10.95;;;4.80;99.90;;;;;;4833194;29;20118;-80
2024/01/31 01:31:33;;;;;;;11.30;10.65;;;4.80;99.90;;;;;;4833992;29;20069;-77
2024/01/31 01:33:59;;;;;;;10.60;10.10;;;5.00;99.90;;;;;;4832689;29;20046;-76
2024/01/31 01:36:25;;;;;;;10.70;10.07;;;4.80;99.90;;;;;;4833650;29;20048;-78
2024/01/31 01:38:51;;;;;;;10.10;9.55;;;4.80;99.90;;;;;;4833186;29;20510;-78
2024/01/31 01:41:17;;;;;;;10.98;10.18;;;4.80;99.90;;;;;;4833484;29;20121;-81
2024/01/31 01:43:43;;;;;;;10.45;9.88;;;4.80;99.90;;;;;;4833629;29;20101;-80
2024/01/31 01:46:15;;;;;;;10.10;9.68;;;4.80;99.90;;;;;;4832625;29;20054;-77
2024/01/31 01:48:45;;;;;;;9.70;9.23;;;4.80;99.90;;;;;;4833966;29;20038;-76
2024/01/31 01:51:16;;;;;;;9.40;8.95;;;4.80;99.90;;;;;;4832631;29;20052;-77
2024/01/31 01:53:41;;;;;;;10.18;9.43;;;4.80;99.90;;;;;;4833398;29;20050;-82
2024/01/31 01:56:13;;;;;;;11.15;10.45;;;4.80;99.90;;;;;;4833188;29;20132;-81
2024/01/31 01:58:40;;;;;;;10.88;10.40;;;4.90;99.90;;;;;;4849033;29;20058;-80
2024/01/31 02:01:07;;;;;;;11.70;10.82;;;4.80;99.90;;;;;;4833383;29;20141;-80
2024/01/31 02:03:35;;;;;;;11.40;10.70;;;4.80;99.90;;;;;;4847585;29;20060;-82
2024/01/31 02:06:01;;;;;;;11.85;11.10;;;4.80;99.90;;;;;;4833535;29;20062;-81
2024/01/31 02:08:28;;;;;;;11.65;10.95;;;4.80;99.90;;;;;;4832959;29;20057;-80
2024/01/31 02:10:54;;;;;;;11.07;10.57;;;4.70;99.90;;;;;;4833074;29;20057;-82
2024/01/31 02:13:20;;;;;;;11.48;10.98;;;4.80;99.90;;;;;;4833144;29;20057;-80
2024/01/31 02:15:53;;;;;;;11.90;11.20;;;4.80;99.90;;;;;;4832589;29;20263;-81
2024/01/31 02:18:19;;;;;;;9.98;9.48;;;5.00;99.90;;;;;;4833349;29;20042;-81
2024/01/31 02:20:45;;;;;;;9.68;8.95;;;4.70;99.90;;;;;;4847870;29;20125;-77
2024/01/31 02:23:11;;;;;;;10.07;9.20;;;4.80;99.90;;;;;;4833959;29;20491;-78
2024/01/31 02:25:37;;;;;;;10.02;9.43;;;4.80;99.90;;;;;;4832468;29;20407;-81
2024/01/31 02:28:02;;;;;;;11.32;10.05;;;4.80;99.90;;;;;;4834319;29;20054;-80
2024/01/31 02:30:28;;;;;;;10.23;9.80;;;4.80;99.90;;;;;;4851664;29;20079;-81
2024/01/31 02:32:54;;;;;;;10.15;9.75;;;4.70;99.90;;;;;;4835754;29;20053;-80
2024/01/31 02:35:20;;;;;;;10.68;10.18;;;4.80;99.90;;;;;;4836596;29;20054;-81
2024/01/31 02:37:45;;;;;;;12.07;10.38;;;5.00;99.90;;;;;;4835658;29;20182;-81
2024/01/31 02:40:11;;;;;;;10.57;10.18;;;4.80;99.90;;;;;;4836759;29;20046;-80
2024/01/31 02:42:37;;;;;;;10.48;9.98;;;4.80;99.90;;;;;;4835902;29;20042;-80
2024/01/31 02:45:04;;;;;;;10.95;10.32;;;4.80;99.90;;;;;;4836505;29;20140;-80
2024/01/31 02:47:30;;;;;;;10.88;10.18;;;4.70;99.90;;;;;;4836017;29;20046;-78
2024/01/31 02:49:55;;;;;;;10.90;10.40;;;4.80;99.90;;;;;;4835717;29;20388;-81
2024/01/31 02:52:21;;;;;;;10.95;10.25;;;4.70;99.90;;;;;;4836348;29;20060;-81
2024/01/31 02:54:51;;;;;;;12.15;11.55;;;4.70;99.90;;;;;;4835018;29;20087;-80
2024/01/31 02:57:17;;;;;;;11.27;10.85;;;4.70;99.90;;;;;;4836130;29;20105;-80
2024/01/31 02:59:43;;;;;;;11.52;11.02;;;4.70;99.90;;;;;;4835445;29;20038;-80
2024/01/31 03:02:08;;;;;;;7.90;7.43;;;4.70;99.90;;;;;;4835519;29;20082;-79
2024/01/31 03:04:34;;;;;;;7.82;7.50;;;4.70;99.90;;;;;;4835505;29;20081;-76
2024/01/31 03:07:00;;;;;;;9.32;8.93;;;4.90;99.90;;;;;;4835519;29;20065;-79
2024/01/31 03:09:27;;;;;;;10.25;9.65;;;4.80;99.90;;;;;;4851212;29;20464;-78
2024/01/31 03:11:53;;;;;;;10.40;9.90;;;4.80;99.90;;;;;;4835094;29;20041;-79
2024/01/31 03:14:19;;;;;;;11.23;10.55;;;4.70;99.90;;;;;;4851492;29;20110;-80
2024/01/31 03:16:45;;;;;;;11.77;11.18;;;4.70;99.90;;;;;;4834961;29;20056;-79
2024/01/31 03:19:11;;;;;;;11.50;11.00;;;4.70;99.90;;;;;;4836105;29;20118;-80
2024/01/31 03:21:36;;;;;;;11.20;10.70;;;4.70;99.90;;;;;;4835068;29;20053;-79
2024/01/31 03:24:02;;;;;;;11.20;10.70;;;4.70;99.90;;;;;;4835129;29;20038;-80
2024/01/31 03:26:28;;;;;;;11.73;11.18;;;4.70;99.90;;;;;;4835551;29;20049;-79
2024/01/31 03:28:54;;;;;;;11.27;10.48;;;4.60;99.90;;;;;;4850277;29;20060;-79
2024/01/31 03:31:20;;;;;;;11.40;10.90;;;4.60;99.90;;;;;;4835435;29;20495;-80
2024/01/31 03:33:46;;;;;;;12.27;11.45;;;4.60;99.90;;;;;;4850264;29;20057;-79
2024/01/31 03:36:12;;;;;;;12.65;12.02;;;4.50;99.90;;;;;;4835618;29;20045;-79
2024/01/31 03:38:41;;;;;;;12.15;11.65;;;4.50;99.90;;;;;;4834716;29;20042;-80
2024/01/31 03:41:07;;;;;;;12.23;11.73;;;4.50;99.90;;;;;;4834941;29;20052;-79
2024/01/31 03:43:34;;;;;;;12.32;11.75;;;4.40;99.90;;;;;;4850641;29;20114;-80
2024/01/31 03:46:04;;;;;;;11.45;10.95;;;4.40;99.90;;;;;;4834425;29;20045;-80
2024/01/31 03:48:30;;;;;;;11.18;10.68;;;4.40;99.90;;;;;;4835626;29;20038;-81
2024/01/31 03:50:58;;;;;;;11.00;10.60;;;4.50;99.90;;;;;;4834507;29;20049;-80
2024/01/31 03:53:25;;;;;;;12.07;11.45;;;4.60;99.90;;;;;;4850698;29;20584;-79
2024/01/31 03:55:50;;;;;;;11.18;10.63;;;4.30;99.90;;;;;;4849846;29;20053;-79
2024/01/31 03:58:16;;;;;;;11.05;10.55;;;4.30;99.90;;;;;;4850052;29;20137;-80
2024/01/31 04:00:42;;;;;;;12.45;11.85;;;4.30;99.90;;;;;;4834904;29;20042;-81
2024/01/31 04:03:08;;;;;;;12.00;11.43;;;4.30;99.90;;;;;;4834125;29;20665;-81
2024/01/31 04:05:33;;;;;;;13.07;12.40;;;4.30;99.90;;;;;;4834980;29;20061;-81
2024/01/31 04:07:59;;;;;;;12.85;12.05;;;4.30;99.90;;;;;;4834094;29;20050;-81
2024/01/31 04:10:25;;;;;;;12.52;11.73;;;4.30;99.90;;;;;;4835174;29;20050;-81
2024/01/31 04:12:52;;;;;;;12.00;11.50;;;4.30;99.90;;;;;;4834710;29;20049;-80
2024/01/31 04:15:18;;;;;;;12.45;11.95;;;4.40;99.90;;;;;;4834344;29;20050;-80
2024/01/31 04:17:44;;;;;;;13.18;12.57;;;4.40;99.90;;;;;;4849998;29;20069;-80
2024/01/31 04:20:11;;;;;;;12.60;11.98;;;4.80;99.90;;;;;;4834133;29;20042;-81
2024/01/31 04:22:37;;;;;;;12.05;11.45;;;4.40;99.90;;;;;;4850139;29;20113;-81
2024/01/31 04:25:04;;;;;;;14.05;13.10;;;4.40;99.90;;;;;;4833776;29;20042;-81
2024/01/31 04:27:30;;;;;;;12.25;11.48;;;4.40;99.90;;;;;;4835282;29;20514;-81
2024/01/31 04:29:55;;;;;;;12.10;11.30;;;4.40;99.90;;;;;;4833834;29;20050;-79
2024/01/31 04:32:23;;;;;;;11.85;11.40;;;4.50;99.90;;;;;;4834441;29;20450;-79
2024/01/31 04:34:49;;;;;;;11.10;10.50;;;4.60;99.90;;;;;;4834246;29;20392;-78
2024/01/31 04:37:15;;;;;;;9.68;9.18;;;4.50;99.90;;;;;;4833214;29;20086;-77
2024/01/31 04:39:41;;;;;;;9.70;9.25;;;4.40;99.90;;;;;;4834366;29;20095;-80
2024/01/31 04:42:07;;;;;;;10.00;9.60;;;4.50;99.90;;;;;;4834018;29;20593;-80
2024/01/31 04:44:32;;;;;;;11.40;10.90;;;5.00;99.90;;;;;;4834702;29;20562;-81
2024/01/31 04:46:58;;;;;;;10.45;10.05;;;4.50;99.90;;;;;;4848962;29;20049;-81
2024/01/31 04:49:24;;;;;;;11.98;11.18;;;4.50;99.90;;;;;;4834555;29;20046;-79
2024/01/31 04:51:49;;;;;;;12.18;11.57;;;4.70;99.90;;;;;;4833663;29;20054;-81
2024/01/31 04:54:16;;;;;;;11.85;11.15;;;4.50;99.90;;;;;;4833400;29;20049;-78
2024/01/31 04:56:42;;;;;;;11.00;10.13;;;4.50;99.90;;;;;;4849579;29;20049;-80
2024/01/31 04:59:08;;;;;;;10.98;10.38;;;4.50;99.90;;;;;;4848261;29;20114;-81
2024/01/31 05:01:34;;;;;;;10.65;10.10;;;4.50;99.90;;;;;;4834130;29;20102;-79
2024/01/31 05:04:00;;;;;;;10.60;10.20;;;4.50;99.90;;;;;;4833469;29;20067;-82
2024/01/31 05:06:26;;;;;;;10.00;9.40;;;4.70;99.90;;;;;;4833727;29;20058;-79
2024/01/31 05:08:51;;;;;;;10.45;9.95;;;4.50;99.90;;;;;;4833722;29;20050;-80
2024/01/31 05:11:17;;;;;;;9.43;9.02;;;4.50;99.90;;;;;;4833526;29;20060;-80
2024/01/31 05:13:43;;;;;;;9.85;9.18;;;4.40;99.90;;;;;;4849101;29;20113;-79
2024/01/31 05:16:10;;;;;;;7.00;6.60;;;4.50;99.90;;;;;;4848567;29;20056;-80
2024/01/31 05:18:36;;;;;;;8.18;7.78;;;4.40;99.90;;;;;;4834298;29;20057;-79
2024/01/31 05:21:02;;;;;;;9.00;8.60;;;4.40;99.90;;;;;;4848398;29;20053;-78
2024/01/31 05:23:28;;;;;;;8.38;7.97;;;4.40;99.90;;;;;;4849285;29;20110;-80
2024/01/31 05:25:54;;;;;;;8.77;8.38;;;4.40;99.90;;;;;;4833343;29;20091;-81
2024/01/31 05:28:20;;;;;;;8.20;7.85;;;4.40;99.90;;;;;;4833301;29;20061;-79
2024/01/31 05:30:46;;;;;;;6.97;6.57;;;4.30;99.90;;;;;;4848836;29;20070;-82
2024/01/31 05:33:12;;;;;;;6.50;6.10;;;4.20;99.90;;;;;;4848086;29;20042;-77
2024/01/31 05:35:38;;;;;;;7.65;7.32;;;4.20;99.90;;;;;;4833814;29;20042;-78
2024/01/31 05:38:05;;;;;;;9.65;9.15;;;4.20;99.90;;;;;;4833071;29;20053;-80
2024/01/31 05:40:31;;;;;;;9.88;9.48;;;4.20;99.90;;;;;;4834000;29;20069;-81
2024/01/31 05:42:57;;;;;;;10.27;9.65;;;4.30;99.90;;;;;;4832865;29;20566;-79
2024/01/31 05:45:27;;;;;;;9.35;8.95;;;4.20;99.90;;;;;;4833332;29;20046;-80
2024/01/31 05:47:52;;;;;;;9.27;8.88;;;4.20;99.90;;;;;;4833482;29;20045;-80
2024/01/31 05:50:18;;;;;;;9.00;8.60;;;4.10;99.90;;;;;;4832844;29;20046;-81
2024/01/31 05:52:44;;;;;;;9.18;8.77;;;4.20;99.90;;;;;;4848813;29;20046;-79
2024/01/31 05:55:14;;;;;;;8.75;8.35;;;3.90;99.90;;;;;;4832617;29;20050;-80
2024/01/31 05:57:40;;;;;;;8.40;8.10;;;3.80;99.90;;;;;;4833780;29;20061;-80
2024/01/31 06:00:09;;;;;;;8.55;8.07;;;3.70;99.90;;;;;;4848382;29;20050;-80
2024/01/31 06:02:35;;;;;;;9.60;9.20;;;3.60;99.90;;;;;;4834749;29;20046;-80
2024/01/31 06:05:01;;;;;;;9.88;9.48;;;3.60;99.90;;;;;;4837433;29;20049;-81
2024/01/31 06:07:26;;;;;;;10.60;10.10;;;3.50;99.90;;;;;;4835893;29;20056;-82
2024/01/31 06:09:52;;;;;;;10.00;9.60;;;3.60;99.90;;;;;;4837006;29;20057;-81
2024/01/31 06:12:18;;;;;;;11.00;10.15;;;3.60;99.90;;;;;;4851733;29;20046;-81
2024/01/31 06:14:43;;;;;;;11.68;11.07;;;3.70;99.90;;;;;;4837303;29;20083;-79
2024/01/31 06:17:09;;;;;;;11.23;10.63;;;3.80;99.90;;;;;;4836696;29;20406;-79
2024/01/31 06:19:35;;;;;;;10.68;10.02;;;3.90;99.90;;;;;;4836705;29;20074;-80
2024/01/31 06:22:01;;;;;;;10.30;9.90;;;4.00;99.90;;;;;;4836690;29;20049;-81
2024/01/31 06:24:27;;;;;;;11.20;10.40;;;4.10;99.90;;;;;;4835844;29;20396;-79
2024/01/31 06:26:53;;;;;;;11.40;10.90;;;4.20;99.90;;;;;;4837057;29;20079;-79
2024/01/31 06:29:19;;;;;;;11.25;10.82;;;4.20;99.90;;;;;;4835814;29;20049;-79
2024/01/31 06:31:48;;;;;;;12.32;11.82;;;4.20;99.90;;;;;;4851756;29;20132;-80
2024/01/31 06:34:15;;;;;;;12.15;11.50;;;4.20;99.90;;;;;;4835902;29;20038;-79
2024/01/31 06:36:40;;;;;;;13.30;12.70;;;4.20;99.90;;;;;;4836193;29;20053;-79
2024/01/31 06:39:06;;;;;;;11.50;10.90;;;4.40;99.90;;;;;;4836091;29;20054;-79
2024/01/31 06:41:34;;;;;;;12.85;12.13;;;4.30;99.90;;;;;;4851288;29;20049;-78
2024/01/31 06:44:00;;;;;;;11.25;10.85;;;4.30;99.90;;;;;;4836495;29;20061;-79
2024/01/31 06:46:26;;;;;;;11.02;10.52;;;4.30;99.90;;;;;;4835352;29;20042;-79
2024/01/31 06:48:51;;;;;;;10.55;10.15;;;4.30;99.90;;;;;;4836570;29;20065;-78
2024/01/31 06:51:17;;;;;;;11.05;10.55;;;4.30;99.90;;;;;;4851018;29;20046;-78
2024/01/31 06:53:44;;;;;;;12.00;11.40;;;4.40;99.90;;;;;;4835877;29;20057;-78
2024/01/31 06:56:16;;;;;;;12.63;12.00;;;4.30;99.90;;;;;;4851267;29;20064;-79
2024/01/31 06:58:46;;;;;;;12.05;11.55;;;4.30;99.90;;;;;;4835444;29;20053;-80
2024/01/31 07:01:16;;;;;;;11.82;11.32;;;4.40;99.90;;;;;;4851365;29;20483;-80
2024/01/31 07:03:42;;;;;;;12.60;12.05;;;4.30;99.90;;;;;;4835334;29;20053;-80
2024/01/31 07:06:07;;;;;;;12.07;11.40;;;4.30;99.90;;;;;;4835683;29;20058;-80
2024/01/31 07:08:34;;;;;;;11.32;10.75;;;4.30;99.90;;;;;;4820445;29;20114;-79
2024/01/31 07:11:00;;;;;;;11.43;10.90;;;4.30;99.90;;;;;;4835558;29;20324;-80
2024/01/31 07:13:26;;;;;;;11.40;10.82;;;4.40;99.90;;;;;;4850353;29;20054;-80
2024/01/31 07:15:52;;;;;;;11.38;10.80;;;4.40;99.90;;;;;;4834521;29;20533;-79
2024/01/31 07:18:17;;;;;;;12.45;11.85;;;4.40;99.90;;;;;;4835615;29;20146;-79
2024/01/31 07:20:43;;;;;;;11.27;10.82;;;4.40;99.90;;;;;;4850624;29;20062;-79
2024/01/31 07:23:09;;;;;;;11.57;11.07;;;4.40;99.90;;;;;;4835385;29;20122;-79
2024/01/31 07:25:38;;;;;;;9.90;9.25;;;4.40;99.90;;;;;;4850587;29;20054;-80
2024/01/31 07:28:05;;;;;;;10.32;9.68;;;4.40;99.90;;;;;;4850675;29;20057;-81
2024/01/31 07:30:30;;;;;;;9.85;9.20;;;4.40;99.90;;;;;;4835528;29;20503;-78
2024/01/31 07:32:56;;;;;;;9.52;8.95;;;4.40;99.90;;;;;;4834708;29;20061;-80
2024/01/31 07:35:24;;;;;;;10.23;9.55;;;4.50;99.90;;;;;;4835502;29;20096;-81
2024/01/31 07:37:50;;;;;;;10.05;9.35;;;4.50;99.90;;;;;;4834264;29;20070;-80
2024/01/31 07:40:16;;;;;;;9.18;8.48;;;4.50;99.90;;;;;;4835508;29;20102;-80
2024/01/31 07:42:41;;;;;;;9.20;8.68;;;4.50;99.90;;;;;;4831109;29;20046;-80
2024/01/31 07:45:08;;;;;;;9.73;9.20;;;4.60;99.90;;;;;;4845804;29;20089;-81
2024/01/31 07:47:36;;;;;;;10.43;9.60;;;4.50;99.90;;;;;;4835038;29;20050;-81
2024/01/31 07:50:04;;;;;;;10.50;10.00;;;4.60;99.90;;;;;;4834528;29;20114;-79
2024/01/31 07:52:30;;;;;;;9.70;9.20;;;4.50;99.90;;;;;;4834874;29;20046;-81
2024/01/31 07:54:55;;;;;;;9.48;8.93;;;4.60;99.90;;;;;;4833185;29;20061;-80
2024/01/31 07:57:21;;;;;;;9.82;9.38;;;4.50;99.90;;;;;;4834901;29;20057;-80
2024/01/31 07:59:47;;;;;;;9.15;8.57;;;4.60;99.90;;;;;;4834530;29;20483;-81
2024/01/31 08:02:13;;;;;;;9.73;9.02;;;4.50;99.90;;;;;;4834901;29;20054;-80
2024/01/31 08:04:39;;;;;;;10.73;10.02;;;4.60;99.90;;;;;;4834888;29;20052;-80
2024/01/31 08:07:04;;;;;;;10.70;9.98;;;4.60;99.90;;;;;;4833858;29;20125;-81
2024/01/31 08:09:30;;;;;;;9.70;9.20;;;4.60;99.90;;;;;;4835000;29;20050;-78
2024/01/31 08:11:56;;;;;;;10.10;9.50;;;4.60;99.90;;;;;;4834395;29;20046;-80
2024/01/31 08:14:21;;;;;;;10.70;9.90;;;4.60;99.90;;;;;;4826198;29;20046;-79
2024/01/31 08:16:50;;;;;;;12.02;11.18;;;4.60;99.90;;;;;;4829043;29;20057;-79
2024/01/31 08:19:16;;;;;;;10.98;10.32;;;4.60;99.90;;;;;;4848642;29;20046;-78
2024/01/31 08:21:41;;;;;;;10.20;9.63;;;4.60;99.90;;;;;;4832856;29;20517;-81
2024/01/31 08:24:07;;;;;;;9.18;8.65;;;5.00;99.90;;;;;;4832728;29;20106;-81
2024/01/31 08:26:33;;;;;;;10.23;9.55;;;4.60;99.90;;;;;;4848064;29;20082;-78
2024/01/31 08:28:59;;;;;;;10.30;9.70;;;4.60;99.90;;;;;;4846319;29;20053;-80
2024/01/31 08:31:24;;;;;;;9.18;8.68;;;4.60;99.90;;;;;;4835236;29;20060;-80
2024/01/31 08:33:50;;;;;;;10.60;9.90;;;4.60;99.90;;;;;;4844724;29;20046;-79
2024/01/31 08:36:16;;;;;;;12.32;11.35;;;4.80;99.90;;;;;;4848019;29;20138;-80
2024/01/31 08:38:43;;;;;;;10.20;9.60;;;4.60;99.90;;;;;;4833161;29;20045;-80
2024/01/31 08:41:12;;;;;;;9.65;9.02;;;4.70;99.90;;;;;;4831091;29;20084;-81
2024/01/31 08:43:38;;;;;;;9.70;9.10;;;4.70;99.90;;;;;;4833144;29;20084;-78
2024/01/31 08:46:04;;;;;;;9.40;8.70;;;4.70;99.90;;;;;;4832784;29;20090;-80
2024/01/31 08:48:29;;;;;;;9.68;8.98;;;4.70;99.90;;;;;;4833403;29;20047;-79
2024/01/31 08:50:57;;;;;;;8.10;7.60;;;4.70;99.90;;;;;;4832452;29;20059;-81
2024/01/31 08:53:23;;;;;;;9.02;8.40;;;4.70;99.90;;;;;;4847976;29;20440;-80
2024/01/31 08:55:49;;;;;;;9.30;8.73;;;4.80;99.90;;;;;;4831173;29;20141;-81
2024/01/31 08:58:14;;;;;;;8.70;8.15;;;4.80;99.90;;;;;;4846105;29;20052;-81
2024/01/31 09:00:40;;;;;;;7.57;7.00;;;4.80;99.90;;;;;;4848256;29;20042;-81
2024/01/31 09:03:06;;;;;;;8.90;8.30;;;4.90;99.90;;;;;;4848069;29;20058;-81
2024/01/31 09:05:31;;;;;;;7.70;6.93;;;5.10;99.90;;;;;;4847974;29;20045;-82
2024/01/31 09:07:59;;;;;;;9.75;8.80;;;4.90;99.90;;;;;;4833917;29;20050;-82
2024/01/31 09:10:26;;;;;;;9.05;8.55;;;4.90;99.90;;;;;;4838143;29;20041;-82
2024/01/31 09:12:53;;;;;;;9.10;8.60;;;4.90;99.90;;;;;;4832235;29;20113;-79
2024/01/31 09:15:19;;;;;;;8.73;8.25;;;4.90;99.90;;;;;;4847953;29;20046;-81
2024/01/31 09:17:46;;;;;;;6.60;6.13;;;5.00;99.90;;;;;;4832676;29;20078;-82
2024/01/31 09:20:12;;;;;;;8.02;7.25;;;5.00;99.90;;;;;;4832403;29;20118;-82
2024/01/31 09:22:38;;;;;;;6.95;6.35;;;5.10;99.90;;;;;;4833800;29;20107;-81
2024/01/31 09:25:06;;;;;;;6.57;6.03;;;5.10;99.90;;;;;;4832761;29;20042;-80
2024/01/31 09:27:32;;;;;;;6.22;5.78;;;5.20;99.90;;;;;;4833364;29;20061;-81
2024/01/31 09:29:58;;;;;;;5.10;4.80;;;5.20;99.90;;;;;;4832109;29;20071;-80
2024/01/31 09:32:24;;;;;;;6.47;5.95;;;5.30;99.90;;;;;;4833243;29;20497;-81
2024/01/31 09:34:49;;;;;;;7.93;7.22;;;5.40;99.90;;;;;;4832548;29;20057;-80
2024/01/31 09:37:15;;;;;;;6.93;6.53;;;5.40;99.90;;;;;;4832196;29;20062;-78
2024/01/31 09:39:41;;;;;;;7.07;5.80;;;5.30;99.90;;;;;;4847592;29;20046;-81
2024/01/31 09:42:07;;;;;;;7.18;6.65;;;5.50;99.90;;;;;;4830914;29;20049;-78
2024/01/31 09:44:34;;;;;;;6.53;6.03;;;5.30;99.90;;;;;;4833344;29;20057;-81
2024/01/31 09:47:00;;;;;;;7.68;7.13;;;5.40;99.90;;;;;;4832323;29;20065;-78
2024/01/31 09:49:26;;;;;;;6.95;6.32;;;5.40;99.90;;;;;;4832098;29;20124;-81
2024/01/31 09:52:01;;;;;;;6.97;6.57;;;5.40;99.90;;;;;;4832960;29;20050;-80
2024/01/31 09:54:28;;;;;;;6.47;6.00;;;5.50;99.90;;;;;;4846647;29;20046;-79
2024/01/31 09:56:55;;;;;;;6.57;6.18;;;5.60;99.90;;;;;;4847896;29;20077;-79
2024/01/31 09:59:21;;;;;;;7.32;6.82;;;5.50;99.90;;;;;;4847260;29;20057;-81
2024/01/31 10:01:52;;;;;;;7.10;6.30;;;5.60;99.90;;;;;;4832650;29;20050;-79
2024/01/31 10:04:18;;;;;;;6.65;6.25;;;5.60;99.90;;;;;;4847407;29;20127;-80
2024/01/31 10:06:44;;;;;;;7.05;6.57;;;5.60;99.90;;;;;;4831877;29;20066;-80
2024/01/31 10:09:10;;;;;;;6.05;5.65;;;5.60;99.90;;;;;;4832585;29;20085;-80
2024/01/31 10:11:36;;;;;;;5.75;5.35;;;5.70;99.90;;;;;;4831827;29;20057;-81
2024/01/31 10:14:02;;;;;;;6.57;6.07;;;5.60;99.90;;;;;;4833412;29;20038;-80
2024/01/31 10:16:28;;;;;;;8.52;7.90;;;5.70;99.90;;;;;;4831912;29;20079;-81
2024/01/31 10:18:54;;;;;;;6.05;5.65;;;5.70;99.90;;;;;;4832523;29;20185;-80
2024/01/31 10:21:20;;;;;;;6.80;6.30;;;5.70;99.90;;;;;;4832383;29;20069;-78
2024/01/31 10:23:59;;;;;;;5.50;5.15;;;5.70;99.90;;;;;;4847827;29;20145;-79
2024/01/31 10:26:26;;;;;;;7.10;6.63;;;5.70;99.90;;;;;;4847588;29;20061;-79
2024/01/31 10:28:52;;;;;;;8.85;7.95;;;5.80;99.90;;;;;;4846699;29;20050;-78
2024/01/31 10:31:18;;;;;;;6.40;5.90;;;5.70;99.90;;;;;;4832645;29;20431;-78
2024/01/31 10:33:45;;;;;;;4.35;4.03;;;5.80;99.90;;;;;;4847025;29;20050;-76
2024/01/31 10:36:10;;;;;;;5.85;5.35;;;5.80;99.90;;;;;;4848012;29;20133;-76
2024/01/31 10:38:39;;;;;;;6.05;5.57;;;5.90;99.90;;;;;;4847549;29;20415;-77
2024/01/31 10:41:07;;;;;;;7.00;6.47;;;5.90;99.90;;;;;;4846738;29;20058;-82
2024/01/31 10:43:34;;;;;;;8.80;8.23;;;5.80;99.90;;;;;;4848314;29;20392;-80
2024/01/31 10:46:00;;;;;;;8.05;7.38;;;5.90;99.90;;;;;;4831624;29;20054;-85
2024/01/31 10:48:26;;;;;;;7.50;6.90;;;5.90;99.90;;;;;;4847639;29;20590;-80
2024/01/31 10:50:55;;;;;;;6.25;5.70;;;5.90;99.90;;;;;;4834353;29;20042;-79
2024/01/31 10:53:22;;;;;;;6.90;6.40;;;5.90;99.90;;;;;;4834774;29;20054;-80
2024/01/31 10:55:50;;;;;;;7.28;6.75;;;5.90;99.90;;;;;;4850830;29;20064;-77
2024/01/31 10:58:16;;;;;;;7.70;7.20;;;5.90;99.90;;;;;;4835116;29;20082;-78
2024/01/31 11:00:49;;;;;;;7.18;6.68;;;5.90;99.90;;;;;;4835292;29;20053;-80
2024/01/31 11:03:15;;;;;;;6.90;6.40;;;5.90;99.90;;;;;;4834642;29;20046;-79
2024/01/31 11:05:42;;;;;;;7.05;6.55;;;5.90;99.90;;;;;;4834673;29;20057;-80
2024/01/31 11:08:21;;;;;;;7.45;6.85;;;5.90;99.90;;;;;;4850184;29;20106;-79
2024/01/31 11:10:48;;;;;;;6.85;5.95;;;5.90;99.90;;;;;;4835144;29;20049;-80
2024/01/31 11:13:14;;;;;;;8.60;7.90;;;5.90;99.90;;;;;;4835564;29;20429;-79
2024/01/31 11:15:40;;;;;;;7.97;7.38;;;5.90;99.90;;;;;;4834548;29;20125;-76
2024/01/31 11:18:10;;;;;;;7.50;7.00;;;6.00;99.90;;;;;;4834692;29;20050;-78
2024/01/31 11:20:47;;;;;;;8.25;7.68;;;6.00;99.90;;;;;;4834560;29;20046;-80
2024/01/31 11:23:19;;;;;;;9.10;8.45;;;6.00;99.90;;;;;;4851114;29;20050;-78
2024/01/31 11:25:46;;;;;;;9.32;8.63;;;6.00;99.90;;;;;;4848176;29;20078;-80
2024/01/31 11:28:13;;;;;;;10.02;9.13;;;6.00;99.90;;;;;;4847057;29;20042;-80
2024/01/31 11:30:39;;;;;;;9.57;8.77;;;6.00;99.90;;;;;;4848140;29;20042;-80
2024/01/31 11:33:06;;;;;;;9.25;8.52;;;6.00;99.90;;;;;;4847968;29;20496;-78
2024/01/31 11:35:32;;;;;;;10.77;9.68;;;6.00;99.90;;;;;;4848656;29;20545;-78
2024/01/31 11:37:59;;;;;;;9.75;8.95;;;6.10;99.90;;;;;;4832092;29;20057;-79
2024/01/31 11:40:25;;;;;;;9.93;9.15;;;6.10;99.90;;;;;;4848158;29;20187;-80
2024/01/31 11:42:53;;;;;;;8.57;7.90;;;6.40;99.90;;;;;;4832257;29;20110;-78
2024/01/31 11:45:22;;;;;;;8.13;7.43;;;6.10;99.90;;;;;;4848610;29;20109;-78
2024/01/31 11:47:49;;;;;;;7.65;6.93;;;6.10;99.90;;;;;;4833678;29;20117;-80
2024/01/31 11:50:15;;;;;;;9.68;8.90;;;6.20;99.90;;;;;;4848086;29;20503;-81
2024/01/31 11:52:41;;;;;;;8.70;8.02;;;6.20;99.90;;;;;;4833308;29;20075;-79
2024/01/31 11:55:11;;;;;;;8.40;7.65;;;6.20;99.90;;;;;;4846846;29;20414;-80
2024/01/31 11:57:37;;;;;;;7.97;7.47;;;6.20;99.90;;;;;;4848822;29;20443;-78
2024/01/31 12:00:06;;;;;;;7.57;6.97;;;6.30;99.90;;;;;;4847521;29;20057;-76
2024/01/31 12:02:36;;;;;;;8.32;7.63;;;6.30;99.90;;;;;;4832518;29;20081;-80
2024/01/31 12:05:02;;;;;;;7.78;7.22;;;6.30;99.90;;;;;;4848624;29;20056;-78
2024/01/31 12:07:29;;;;;;;6.72;6.18;;;6.40;99.90;;;;;;4831258;29;20066;-80
2024/01/31 12:09:54;;;;;;;6.78;6.13;;;6.40;99.90;;;;;;4833183;29;20538;-80
2024/01/31 12:12:20;;;;;;;7.22;6.72;;;6.50;99.90;;;;;;4832525;29;20050;-79
2024/01/31 12:14:46;;;;;;;7.05;6.55;;;6.50;99.90;;;;;;4848741;29;20054;-79
2024/01/31 12:17:25;;;;;;;5.78;5.30;;;6.50;99.90;;;;;;4833021;29;20048;-78
2024/01/31 12:20:09;;;;;;;7.30;6.70;;;6.60;99.90;;;;;;4847170;29;20432;-80
2024/01/31 12:22:39;;;;;;;7.72;7.05;;;6.60;99.90;;;;;;4833619;29;20102;-78
2024/01/31 12:25:05;;;;;;;7.82;7.03;;;6.60;99.90;;;;;;4832135;29;20521;-77
2024/01/31 12:27:32;;;;;;;8.90;8.20;;;6.60;99.90;;;;;;4833104;29;20049;-77
2024/01/31 12:29:58;;;;;;;7.82;7.15;;;6.60;99.90;;;;;;4832645;29;20467;-78
2024/01/31 12:32:25;;;;;;;6.10;5.57;;;6.60;99.90;;;;;;4831717;29;20076;-78
2024/01/31 12:34:51;;;;;;;7.80;7.10;;;6.60;99.90;;;;;;4832767;29;20050;-79
2024/01/31 12:37:17;;;;;;;7.55;6.85;;;6.60;99.90;;;;;;4832263;29;20050;-77
2024/01/31 12:39:43;;;;;;;7.13;6.43;;;6.70;99.90;;;;;;4847746;29;20110;-80
2024/01/31 12:42:09;;;;;;;8.18;7.53;;;6.70;99.90;;;;;;4831908;29;20038;-78
2024/01/31 12:44:35;;;;;;;8.07;7.43;;;6.60;99.90;;;;;;4847486;29;20436;-80